createdAt,value
2022-12-28T00:00:31.564Z,51.9
2022-12-28T00:05:50.308Z,52.5
2022-12-28T00:11:31.153Z,52.4
2022-12-28T00:16:49.998Z,52.5
2022-12-28T00:22:08.582Z,52.8
2022-12-28T00:27:26.541Z,52.5
2022-12-28T00:32:45.271Z,51.6
2022-12-28T00:38:03.765Z,52.7
2022-12-28T00:43:22.025Z,52.7
2022-12-28T00:48:40.507Z,52.8
2022-12-28T00:53:59.249Z,52.4
2022-12-28T00:59:17.227Z,52.7
2022-12-28T01:04:35.400Z,52.7
2022-12-28T01:09:38.265Z,52.7
2022-12-28T01:14:56.787Z,52.2
2022-12-28T01:20:14.688Z,52.7
2022-12-28T01:25:17.291Z,53.8
2022-12-28T01:30:39.557Z,53.8
2022-12-28T01:35:57.469Z,52.8
2022-12-28T01:41:16.253Z,53.1
2022-12-28T01:46:34.481Z,53.7
2022-12-28T01:51:52.386Z,53.3
2022-12-28T01:57:11.153Z,52.7
2022-12-28T02:02:30.992Z,52.3
2022-12-28T02:07:49.919Z,52.6
2022-12-28T02:13:08.591Z,53
2022-12-28T02:18:27.112Z,52.7
2022-12-28T02:23:45.295Z,53
2022-12-28T02:29:03.504Z,53.6
2022-12-28T02:34:22.007Z,53.8
2022-12-28T02:39:40.486Z,53.2
2022-12-28T02:44:58.682Z,53.3
2022-12-28T02:50:16.934Z,53.7
2022-12-28T02:55:34.837Z,53.6
2022-12-28T03:00:53.064Z,53.5
2022-12-28T03:06:21.500Z,53.4
2022-12-28T03:11:25.473Z,54.4
2022-12-28T03:16:44.234Z,52.8
2022-12-28T03:22:02.732Z,52.9
2022-12-28T03:27:06.212Z,53.6
2022-12-28T03:32:24.432Z,54.2
2022-12-28T03:37:42.947Z,53.7
2022-12-28T03:43:01.411Z,53.4
2022-12-28T03:48:19.610Z,53.8
2022-12-28T03:53:37.894Z,53
2022-12-28T03:58:56.143Z,52.8
2022-12-28T04:04:17.857Z,53.7
2022-12-28T04:09:36.646Z,53.5
2022-12-28T04:14:55.136Z,54
2022-12-28T04:20:13.609Z,53.5
2022-12-28T04:25:32.187Z,54.1
2022-12-28T04:30:50.953Z,54
2022-12-28T04:36:09.427Z,53
2022-12-28T04:41:27.959Z,54.1
2022-12-28T04:46:46.299Z,53.7
2022-12-28T04:52:04.770Z,53.4
2022-12-28T04:57:23.584Z,54.2
2022-12-28T05:02:47.188Z,53.3
2022-12-28T05:08:05.152Z,53.2
2022-12-28T05:13:23.430Z,53.6
2022-12-28T05:18:41.941Z,53.5
2022-12-28T05:24:00.717Z,53.3
2022-12-28T05:29:19.229Z,53.4
2022-12-28T05:34:37.739Z,54.3
2022-12-28T05:39:56.227Z,54.4
2022-12-28T05:45:14.467Z,54
2022-12-28T05:50:32.649Z,53.6
2022-12-28T05:55:51.156Z,54.3
2022-12-28T06:01:09.843Z,54.1
2022-12-28T06:06:28.447Z,53.4
2022-12-28T06:11:46.667Z,53.2
2022-12-28T06:17:04.921Z,53.9
2022-12-28T06:22:23.372Z,53.6
2022-12-28T06:27:42.130Z,54.1
2022-12-28T06:33:00.730Z,53.3
2022-12-28T06:38:18.635Z,53.9
2022-12-28T06:43:36.853Z,53.4
2022-12-28T06:48:55.118Z,53.9
2022-12-28T06:54:13.315Z,53.9
2022-12-28T06:59:31.803Z,53.1
2022-12-28T07:04:50.057Z,53.5
2022-12-28T07:09:52.656Z,53.8
2022-12-28T07:15:10.841Z,53.9
2022-12-28T07:20:29.378Z,54.1
2022-12-28T07:25:47.857Z,54.1
2022-12-28T07:31:06.704Z,53.6
2022-12-28T07:36:25.015Z,54
2022-12-28T07:41:43.540Z,54.5
2022-12-28T07:47:02.294Z,53.5
2022-12-28T07:52:20.248Z,53.9
2022-12-28T07:57:38.146Z,54.3
2022-12-28T08:02:56.660Z,53.5
2022-12-28T08:08:15.214Z,53.6
2022-12-28T08:13:33.397Z,53.9
2022-12-28T08:18:51.899Z,53.4
2022-12-28T08:24:10.435Z,52
2022-12-28T08:29:28.613Z,52.1
2022-12-28T08:34:46.496Z,52.7
2022-12-28T08:40:05.013Z,46.4
2022-12-28T08:45:23.753Z,44.1
2022-12-28T08:50:42.330Z,46.8
2022-12-28T08:56:07.639Z,47.5
2022-12-28T09:01:26.638Z,47.8
2022-12-28T09:06:44.692Z,48.7
2022-12-28T09:12:02.937Z,49.3
2022-12-28T09:17:21.108Z,49.7
2022-12-28T09:22:39.849Z,50.5
2022-12-28T09:28:00.302Z,50.4
2022-12-28T09:33:18.744Z,49.9
2022-12-28T09:38:37.639Z,49.9
2022-12-28T09:43:55.863Z,50
2022-12-28T09:49:14.049Z,50.3
2022-12-28T09:54:34.179Z,50.5
2022-12-28T09:59:52.704Z,50.6
2022-12-28T10:05:11.422Z,51.4
2022-12-28T10:10:29.932Z,51
2022-12-28T10:15:48.299Z,51
2022-12-28T10:21:07.089Z,51.7
2022-12-28T10:26:25.621Z,51.5
2022-12-28T10:31:44.155Z,51.6
2022-12-28T10:37:02.720Z,51.7
2022-12-28T10:42:21.230Z,51
2022-12-28T10:47:39.450Z,51
2022-12-28T10:52:57.629Z,50.9
2022-12-28T10:58:34.853Z,51
2022-12-28T11:03:53.544Z,51.5
2022-12-28T11:09:11.468Z,51
2022-12-28T11:14:29.697Z,50.8
2022-12-28T11:19:47.954Z,51.2
2022-12-28T11:25:06.427Z,50.8
2022-12-28T11:30:24.910Z,51
2022-12-28T11:35:43.416Z,50.8
2022-12-28T11:41:01.615Z,51.5
2022-12-28T11:46:20.097Z,51.5
2022-12-28T11:51:38.358Z,51.4
2022-12-28T11:56:56.547Z,51.5
2022-12-28T12:02:14.847Z,50.7
2022-12-28T12:07:33.655Z,51.5
2022-12-28T12:12:52.107Z,51.4
2022-12-28T12:18:10.608Z,50.9
2022-12-28T12:23:29.162Z,50.7
2022-12-28T12:28:47.635Z,51.4
2022-12-28T12:34:05.833Z,51.3
2022-12-28T12:39:24.344Z,51.2
2022-12-28T12:44:43.090Z,50.8
2022-12-28T12:50:01.039Z,51.3
2022-12-28T12:55:19.540Z,50.4
2022-12-28T13:00:38.004Z,51.1
2022-12-28T13:05:56.227Z,50.4
2022-12-28T13:11:14.473Z,51.1
2022-12-28T13:16:32.964Z,50.9
2022-12-28T13:21:51.492Z,50.7
2022-12-28T13:27:13.375Z,50.7
2022-12-28T13:32:39.287Z,50.7
2022-12-28T13:37:57.193Z,50.3
2022-12-28T13:43:15.721Z,51.2
2022-12-28T13:48:33.909Z,50.2
2022-12-28T13:53:52.392Z,51.2
2022-12-28T13:59:10.931Z,50.5
2022-12-28T14:04:55.623Z,50.3
2022-12-28T14:10:14.149Z,50.7
2022-12-28T14:15:42.116Z,50.8
2022-12-28T14:21:00.111Z,51.1
2022-12-28T14:26:18.064Z,50.9
2022-12-28T14:31:37.216Z,50.6
2022-12-28T14:36:56.183Z,50.7
2022-12-28T14:42:14.481Z,50.5
2022-12-28T14:47:33.799Z,50.3
2022-12-28T14:52:52.286Z,50.1
2022-12-28T14:58:10.759Z,50.2
2022-12-28T15:03:28.966Z,50.2
2022-12-28T15:08:46.952Z,51.2
2022-12-28T15:14:05.445Z,50.6
2022-12-28T15:19:24.248Z,50.8
2022-12-28T15:24:42.888Z,50.4
2022-12-28T15:30:21.711Z,51
2022-12-28T15:35:41.592Z,50.5
2022-12-28T15:41:00.097Z,50.2
2022-12-28T15:46:18.641Z,50.9
2022-12-28T15:51:36.901Z,50.8
2022-12-28T15:56:55.655Z,50.2
2022-12-28T16:02:14.775Z,50.6
2022-12-28T16:07:33.676Z,50.9
2022-12-28T16:12:52.137Z,51.1
2022-12-28T16:18:10.365Z,50.6
2022-12-28T16:23:28.579Z,50.9
2022-12-28T16:28:46.483Z,50.1
2022-12-28T16:34:04.969Z,50.2
2022-12-28T16:39:23.501Z,50.8
2022-12-28T16:44:41.969Z,50.9
2022-12-28T16:49:59.969Z,50.5
2022-12-28T16:55:18.199Z,50.9
2022-12-28T17:00:36.952Z,50.8
2022-12-28T17:05:55.136Z,50.9
2022-12-28T17:11:13.715Z,50.1
2022-12-28T17:16:32.075Z,50.1
2022-12-28T17:21:50.852Z,50.3
2022-12-28T17:27:19.761Z,50.2
2022-12-28T17:32:38.615Z,50.1
2022-12-28T17:37:57.377Z,50.6
2022-12-28T17:43:15.385Z,50.9
2022-12-28T17:48:33.848Z,50.9
2022-12-28T17:53:51.771Z,50.1
2022-12-28T17:59:10.580Z,50.7
2022-12-28T18:04:29.035Z,50.3
2022-12-28T18:09:47.529Z,50.1
2022-12-28T18:15:05.522Z,50.6
2022-12-28T18:20:23.999Z,49.9
2022-12-28T18:25:42.499Z,50.7
2022-12-28T18:31:03.643Z,50.7
2022-12-28T18:36:22.199Z,50
2022-12-28T18:41:40.968Z,50.6
2022-12-28T18:46:59.231Z,50.5
2022-12-28T18:52:17.697Z,49.8
2022-12-28T18:57:35.610Z,50.5
2022-12-28T19:02:54.697Z,50
2022-12-28T19:08:12.746Z,50.5
2022-12-28T19:13:31.228Z,50.6
2022-12-28T19:18:49.501Z,50.6
2022-12-28T19:24:07.981Z,49.8
2022-12-28T19:29:26.192Z,50.5
2022-12-28T19:34:44.718Z,49.8
2022-12-28T19:40:02.652Z,50.2
2022-12-28T19:45:21.411Z,50.5
2022-12-28T19:50:39.688Z,50.6
2022-12-28T19:55:57.603Z,49.8
2022-12-28T20:01:16.111Z,49.8
2022-12-28T20:06:34.169Z,49.7
2022-12-28T20:11:52.363Z,49.7
2022-12-28T20:17:10.859Z,49.9
2022-12-28T20:22:29.123Z,49.8
2022-12-28T20:27:47.874Z,50.6
2022-12-28T20:33:06.388Z,49.9
2022-12-28T20:38:25.706Z,49.6
2022-12-28T20:43:43.602Z,49.9
2022-12-28T20:49:02.406Z,50.4
2022-12-28T20:54:21.060Z,49.6
2022-12-28T20:59:39.570Z,50.1
2022-12-28T21:04:58.056Z,49.8
2022-12-28T21:10:16.627Z,49.8
2022-12-28T21:15:35.123Z,49.8
2022-12-28T21:20:53.602Z,50.3
2022-12-28T21:26:12.159Z,49.6
2022-12-28T21:31:30.777Z,49.7
2022-12-28T21:36:48.714Z,50.2
2022-12-28T21:42:06.709Z,50
2022-12-28T21:47:25.513Z,50.3
2022-12-28T21:52:44.274Z,50.2
2022-12-28T21:58:02.811Z,49.3
2022-12-28T22:03:21.390Z,49.7
2022-12-28T22:08:39.634Z,50.4
2022-12-28T22:13:57.904Z,50.2
2022-12-28T22:19:16.390Z,49.6
2022-12-28T22:24:35.182Z,49.5
2022-12-28T22:29:55.592Z,50.3
2022-12-28T22:35:14.196Z,50.1
2022-12-28T22:40:32.411Z,49.6
2022-12-28T22:45:51.434Z,49.8
2022-12-28T22:51:10.026Z,49.6
2022-12-28T22:56:28.511Z,49.5
2022-12-28T23:01:47.275Z,49.6
2022-12-28T23:07:05.484Z,49.6
2022-12-28T23:12:24.264Z,50.3
2022-12-28T23:17:42.849Z,49.5
2022-12-28T23:23:01.429Z,50.1
2022-12-28T23:28:19.924Z,49.6
2022-12-28T23:33:38.173Z,49.8
2022-12-28T23:38:56.661Z,49.6
2022-12-28T23:44:15.156Z,50.2
2022-12-28T23:49:33.986Z,50.2
2022-12-28T23:54:52.462Z,50.2
2022-12-28T23:59:55.615Z,50.2
